sensor_id;sensor_type;location;lat;lon;timestamp;pressure;altitude;pressure_sealevel;temperature;humidity
26865;BME280;40618;51.166;10.322;2022-11-24T00:01:18;96391.78;;;3.32;85.22
26865;BME280;40618;51.166;10.322;2022-11-24T00:03:51;96403.69;;;3.33;85.03
26865;BME280;40618;51.166;10.322;2022-11-24T00:06:22;96413.03;;;3.34;85.59
26865;BME280;40618;51.166;10.322;2022-11-24T00:08:49;96406.25;;;3.33;84.92
26865;BME280;40618;51.166;10.322;2022-11-24T00:11:20;96405.44;;;3.31;84.75
26865;BME280;40618;51.166;10.322;2022-11-24T00:13:47;96407.16;;;3.29;85.11
26865;BME280;40618;51.166;10.322;2022-11-24T00:16:21;96408.84;;;3.30;85.65
26865;BME280;40618;51.166;10.322;2022-11-24T00:18:48;96403.69;;;3.33;85.08
26865;BME280;40618;51.166;10.322;2022-11-24T00:21:16;96407.94;;;3.34;85.22
26865;BME280;40618;51.166;10.322;2022-11-24T00:23:43;96407.91;;;3.36;85.54
26865;BME280;40618;51.166;10.322;2022-11-24T00:26:23;96404.50;;;3.35;84.99
26865;BME280;40618;51.166;10.322;2022-11-24T00:28:51;96407.06;;;3.35;85.60
26865;BME280;40618;51.166;10.322;2022-11-24T00:33:49;96422.41;;;3.35;85.66
26865;BME280;40618;51.166;10.322;2022-11-24T00:36:18;96415.56;;;3.36;85.43
26865;BME280;40618;51.166;10.322;2022-11-24T00:38:44;96421.56;;;3.36;85.73
26865;BME280;40618;51.166;10.322;2022-11-24T00:41:11;96426.63;;;3.38;85.35
26865;BME280;40618;51.166;10.322;2022-11-24T00:43:37;96430.91;;;3.39;85.91
26865;BME280;40618;51.166;10.322;2022-11-24T00:46:02;96435.13;;;3.40;85.47
26865;BME280;40618;51.166;10.322;2022-11-24T00:48:29;96438.50;;;3.42;85.79
26865;BME280;40618;51.166;10.322;2022-11-24T00:50:57;96436.78;;;3.43;85.84
26865;BME280;40618;51.166;10.322;2022-11-24T00:53:24;96441.88;;;3.44;85.38
26865;BME280;40618;51.166;10.322;2022-11-24T00:55:51;96450.41;;;3.45;85.90
26865;BME280;40618;51.166;10.322;2022-11-24T00:58:17;96457.19;;;3.46;86.16
26865;BME280;40618;51.166;10.322;2022-11-24T01:00:43;96451.22;;;3.47;85.86
26865;BME280;40618;51.166;10.322;2022-11-24T01:03:09;96455.44;;;3.49;85.57
26865;BME280;40618;51.166;10.322;2022-11-24T01:05:35;96461.38;;;3.51;86.29
26865;BME280;40618;51.166;10.322;2022-11-24T01:08:01;96459.69;;;3.50;85.33
26865;BME280;40618;51.166;10.322;2022-11-24T01:10:26;96460.50;;;3.52;85.63
26865;BME280;40618;51.166;10.322;2022-11-24T01:12:52;96465.59;;;3.52;85.64
26865;BME280;40618;51.166;10.322;2022-11-24T01:15:18;96463.88;;;3.54;86.02
26865;BME280;40618;51.166;10.322;2022-11-24T01:17:43;96469.84;;;3.55;86.28
26865;BME280;40618;51.166;10.322;2022-11-24T01:20:09;96474.09;;;3.56;85.51
26865;BME280;40618;51.166;10.322;2022-11-24T01:22:35;96468.09;;;3.57;86.25
26865;BME280;40618;51.166;10.322;2022-11-24T01:25:04;96472.31;;;3.58;86.08
26865;BME280;40618;51.166;10.322;2022-11-24T01:27:30;96465.47;;;3.60;85.55
26865;BME280;40618;51.166;10.322;2022-11-24T01:29:56;96465.47;;;3.60;85.88
26865;BME280;40618;51.166;10.322;2022-11-24T01:32:22;96462.94;;;3.59;86.04
26865;BME280;40618;51.166;10.322;2022-11-24T01:34:47;96461.25;;;3.58;86.01
26865;BME280;40618;51.166;10.322;2022-11-24T01:37:13;96468.97;;;3.56;86.17
26865;BME280;40618;51.166;10.322;2022-11-24T01:39:39;96475.81;;;3.54;85.65
26865;BME280;40618;51.166;10.322;2022-11-24T01:42:05;96479.31;;;3.51;86.16
26865;BME280;40618;51.166;10.322;2022-11-24T01:44:31;96476.78;;;3.48;85.60
26865;BME280;40618;51.166;10.322;2022-11-24T01:49:50;96482.78;;;3.47;86.25
26865;BME280;40618;51.166;10.322;2022-11-24T01:52:33;96492.09;;;3.50;86.20
26865;BME280;40618;51.166;10.322;2022-11-24T01:55:09;96488.69;;;3.51;86.32
26865;BME280;40618;51.166;10.322;2022-11-24T01:58:10;96495.50;;;3.52;85.89
26865;BME280;40618;51.166;10.322;2022-11-24T02:00:41;96493.75;;;3.52;85.84
26865;BME280;40618;51.166;10.322;2022-11-24T02:03:13;96497.19;;;3.53;86.13
26865;BME280;40618;51.166;10.322;2022-11-24T02:11:03;96494.66;;;3.50;86.32
26865;BME280;40618;51.166;10.322;2022-11-24T02:13:32;96498.88;;;3.52;86.05
26865;BME280;40618;51.166;10.322;2022-11-24T02:15:59;96497.19;;;3.53;86.52
26865;BME280;40618;51.166;10.322;2022-11-24T02:18:26;96501.38;;;3.57;86.18
26865;BME280;40618;51.166;10.322;2022-11-24T02:20:52;96508.16;;;3.58;86.47
26865;BME280;40618;51.166;10.322;2022-11-24T02:23:23;96493.63;;;3.60;86.38
26865;BME280;40618;51.166;10.322;2022-11-24T02:26:34;96500.47;;;3.61;86.11
26865;BME280;40618;51.166;10.322;2022-11-24T02:29:05;96504.72;;;3.61;85.93
26865;BME280;40618;51.166;10.322;2022-11-24T02:31:31;96511.59;;;3.59;86.14
26865;BME280;40618;51.166;10.322;2022-11-24T02:33:57;96525.25;;;3.58;86.80
26865;BME280;40618;51.166;10.322;2022-11-24T02:36:23;96518.38;;;3.61;86.82
26865;BME280;40618;51.166;10.322;2022-11-24T02:38:49;96530.28;;;3.64;86.46
26865;BME280;40618;51.166;10.322;2022-11-24T02:41:17;96528.47;;;3.69;86.69
26865;BME280;40618;51.166;10.322;2022-11-24T02:43:54;96527.59;;;3.70;86.12
26865;BME280;40618;51.166;10.322;2022-11-24T02:46:21;96528.44;;;3.72;86.22
26865;BME280;40618;51.166;10.322;2022-11-24T02:48:47;96532.63;;;3.76;86.46
26865;BME280;40618;51.166;10.322;2022-11-24T02:51:13;96529.16;;;3.79;86.55
26865;BME280;40618;51.166;10.322;2022-11-24T02:53:38;96541.97;;;3.79;86.50
26865;BME280;40618;51.166;10.322;2022-11-24T02:56:04;96535.09;;;3.81;86.38
26865;BME280;40618;51.166;10.322;2022-11-24T02:58:30;96540.22;;;3.81;86.63
26865;BME280;40618;51.166;10.322;2022-11-24T03:00:56;96542.75;;;3.82;86.44
26865;BME280;40618;51.166;10.322;2022-11-24T03:03:24;96536.75;;;3.83;86.40
26865;BME280;40618;51.166;10.322;2022-11-24T03:05:51;96545.28;;;3.84;86.30
26865;BME280;40618;51.166;10.322;2022-11-24T03:08:17;96544.41;;;3.85;86.99
26865;BME280;40618;51.166;10.322;2022-11-24T03:10:42;96539.25;;;3.86;86.45
26865;BME280;40618;51.166;10.322;2022-11-24T03:13:09;96542.66;;;3.88;86.72
26865;BME280;40618;51.166;10.322;2022-11-24T03:15:35;96540.06;;;3.90;86.94
26865;BME280;40618;51.166;10.322;2022-11-24T03:18:01;96537.47;;;3.92;86.89
26865;BME280;40618;51.166;10.322;2022-11-24T03:20:27;96542.50;;;3.95;86.72
26865;BME280;40618;51.166;10.322;2022-11-24T03:22:53;96537.34;;;3.96;86.76
26865;BME280;40618;51.166;10.322;2022-11-24T03:25:19;96545.00;;;3.99;86.76
26865;BME280;40618;51.166;10.322;2022-11-24T03:27:45;96543.25;;;4.01;87.09
26865;BME280;40618;51.166;10.322;2022-11-24T03:30:11;96546.69;;;4.00;86.61
26865;BME280;40618;51.166;10.322;2022-11-24T03:32:38;96538.13;;;4.01;86.83
26865;BME280;40618;51.166;10.322;2022-11-24T03:35:04;96550.00;;;4.05;86.74
26865;BME280;40618;51.166;10.322;2022-11-24T03:37:30;96547.41;;;4.07;87.02
26865;BME280;40618;51.166;10.322;2022-11-24T03:39:55;96557.66;;;4.07;86.82
26865;BME280;40618;51.166;10.322;2022-11-24T03:42:21;96556.81;;;4.06;87.05
26865;BME280;40618;51.166;10.322;2022-11-24T03:44:47;96553.44;;;4.06;87.05
26865;BME280;40618;51.166;10.322;2022-11-24T03:47:12;96558.56;;;4.06;87.03
26865;BME280;40618;51.166;10.322;2022-11-24T03:49:38;96563.69;;;4.04;86.58
26865;BME280;40618;51.166;10.322;2022-11-24T03:52:06;96565.34;;;4.07;87.34
26865;BME280;40618;51.166;10.322;2022-11-24T03:54:31;96569.59;;;4.08;87.27
26865;BME280;40618;51.166;10.322;2022-11-24T03:56:57;96570.44;;;4.09;86.77
26865;BME280;40618;51.166;10.322;2022-11-24T03:59:23;96578.13;;;4.10;86.83
26865;BME280;40618;51.166;10.322;2022-11-24T04:01:48;96578.13;;;4.10;87.24
26865;BME280;40618;51.166;10.322;2022-11-24T04:04:14;96575.50;;;4.13;87.26
26865;BME280;40618;51.166;10.322;2022-11-24T04:06:39;96580.59;;;4.15;87.15
26865;BME280;40618;51.166;10.322;2022-11-24T04:09:06;96583.06;;;4.18;87.19
26865;BME280;40618;51.166;10.322;2022-11-24T04:11:31;96589.03;;;4.20;87.31
26865;BME280;40618;51.166;10.322;2022-11-24T04:14:15;96586.47;;;4.20;87.55
26865;BME280;40618;51.166;10.322;2022-11-24T04:16:42;96592.38;;;4.23;87.10
26865;BME280;40618;51.166;10.322;2022-11-24T04:19:08;96595.78;;;4.24;87.12
26865;BME280;40618;51.166;10.322;2022-11-24T04:21:33;96592.34;;;4.25;87.48
26865;BME280;40618;51.166;10.322;2022-11-24T04:23:59;96599.13;;;4.28;87.26
26865;BME280;40618;51.166;10.322;2022-11-24T04:26:24;96596.56;;;4.28;87.55
26865;BME280;40618;51.166;10.322;2022-11-24T04:28:50;96600.00;;;4.28;87.03
26865;BME280;40618;51.166;10.322;2022-11-24T04:31:16;96599.13;;;4.29;87.25
26865;BME280;40618;51.166;10.322;2022-11-24T04:33:42;96610.19;;;4.30;87.10
26865;BME280;40618;51.166;10.322;2022-11-24T04:36:08;96605.00;;;4.33;87.55
26865;BME280;40618;51.166;10.322;2022-11-24T04:38:33;96606.72;;;4.34;87.67
26865;BME280;40618;51.166;10.322;2022-11-24T04:41:03;96604.03;;;4.38;87.72
26865;BME280;40618;51.166;10.322;2022-11-24T04:43:29;96604.84;;;4.42;87.39
26865;BME280;40618;51.166;10.322;2022-11-24T04:45:58;96600.50;;;4.44;87.42
26865;BME280;40618;51.166;10.322;2022-11-24T04:48:25;96596.22;;;4.46;87.48
26865;BME280;40618;51.166;10.322;2022-11-24T04:50:51;96613.34;;;4.44;87.10
26865;BME280;40618;51.166;10.322;2022-11-24T04:53:17;96614.25;;;4.42;87.44
26865;BME280;40618;51.166;10.322;2022-11-24T04:55:42;96620.22;;;4.42;87.23
26865;BME280;40618;51.166;10.322;2022-11-24T04:58:11;96613.41;;;4.41;87.03
26865;BME280;40618;51.166;10.322;2022-11-24T05:00:38;96615.16;;;4.39;87.54
26865;BME280;40618;51.166;10.322;2022-11-24T05:03:04;96626.25;;;4.39;87.54
26865;BME280;40618;51.166;10.322;2022-11-24T05:05:30;96623.69;;;4.39;87.57
26865;BME280;40618;51.166;10.322;2022-11-24T05:07:58;96629.66;;;4.40;87.72
26865;BME280;40618;51.166;10.322;2022-11-24T05:10:24;96646.72;;;4.41;87.44
26865;BME280;40618;51.166;10.322;2022-11-24T05:13:08;96651.81;;;4.43;87.55
26865;BME280;40618;51.166;10.322;2022-11-24T05:15:39;96644.13;;;4.43;88.05
26865;BME280;40618;51.166;10.322;2022-11-24T05:18:06;96644.09;;;4.46;87.56
26865;BME280;40618;51.166;10.322;2022-11-24T05:20:35;96643.19;;;4.47;87.46
26865;BME280;40618;51.166;10.322;2022-11-24T05:23:02;96645.72;;;4.48;87.96
26865;BME280;40618;51.166;10.322;2022-11-24T05:25:28;96644.88;;;4.48;87.59
26865;BME280;40618;51.166;10.322;2022-11-24T05:27:58;96656.84;;;4.49;87.91
26865;BME280;40618;51.166;10.322;2022-11-24T05:30:28;96642.25;;;4.51;87.59
26865;BME280;40618;51.166;10.322;2022-11-24T05:32:54;96650.78;;;4.53;87.60
26865;BME280;40618;51.166;10.322;2022-11-24T05:35:20;96654.19;;;4.53;87.63
26865;BME280;40618;51.166;10.322;2022-11-24T05:37:46;96652.47;;;4.54;87.57
26865;BME280;40618;51.166;10.322;2022-11-24T05:40:12;96658.41;;;4.56;87.56
26865;BME280;40618;51.166;10.322;2022-11-24T05:42:38;96656.69;;;4.58;87.38
26865;BME280;40618;51.166;10.322;2022-11-24T05:45:05;96655.78;;;4.59;87.96
26865;BME280;40618;51.166;10.322;2022-11-24T05:47:36;96659.19;;;4.61;87.79
26865;BME280;40618;51.166;10.322;2022-11-24T05:50:02;96658.31;;;4.62;87.99
26865;BME280;40618;51.166;10.322;2022-11-24T05:52:28;96655.72;;;4.64;87.84
26865;BME280;40618;51.166;10.322;2022-11-24T05:54:54;96664.25;;;4.64;87.87
26865;BME280;40618;51.166;10.322;2022-11-24T05:57:19;96666.78;;;4.66;88.01
26865;BME280;40618;51.166;10.322;2022-11-24T05:59:45;96660.81;;;4.65;87.72
26865;BME280;40618;51.166;10.322;2022-11-24T06:02:11;96666.78;;;4.66;87.31
26865;BME280;40618;51.166;10.322;2022-11-24T06:04:38;96664.16;;;4.69;88.04
26865;BME280;40618;51.166;10.322;2022-11-24T06:07:06;96665.84;;;4.70;87.72
26865;BME280;40618;51.166;10.322;2022-11-24T06:09:37;96664.13;;;4.70;87.83
26865;BME280;40618;51.166;10.322;2022-11-24T06:12:08;96670.13;;;4.69;87.86
26865;BME280;40618;51.166;10.322;2022-11-24T06:14:35;96665.06;;;4.66;87.51
26865;BME280;40618;51.166;10.322;2022-11-24T06:17:01;96664.28;;;4.63;87.82
26865;BME280;40618;51.166;10.322;2022-11-24T06:19:27;96671.13;;;4.62;87.74
26865;BME280;40618;51.166;10.322;2022-11-24T06:21:53;96671.97;;;4.63;87.77
26865;BME280;40618;51.166;10.322;2022-11-24T06:24:19;96693.31;;;4.63;87.61
26865;BME280;40618;51.166;10.322;2022-11-24T06:26:45;96691.53;;;4.67;88.19
26865;BME280;40618;51.166;10.322;2022-11-24T06:29:10;96694.03;;;4.70;87.86
26865;BME280;40618;51.166;10.322;2022-11-24T06:31:36;96697.47;;;4.70;88.09
26865;BME280;40618;51.166;10.322;2022-11-24T06:34:05;96708.53;;;4.72;87.70
26865;BME280;40618;51.166;10.322;2022-11-24T06:36:31;96713.66;;;4.72;87.88
26865;BME280;40618;51.166;10.322;2022-11-24T06:39:00;96720.44;;;4.75;88.01
26865;BME280;40618;51.166;10.322;2022-11-24T06:41:26;96717.03;;;4.76;87.81
26865;BME280;40618;51.166;10.322;2022-11-24T06:43:52;96718.69;;;4.79;87.87
26865;BME280;40618;51.166;10.322;2022-11-24T06:46:17;96711.81;;;4.79;87.70
26865;BME280;40618;51.166;10.322;2022-11-24T06:48:43;96716.94;;;4.81;88.01
26865;BME280;40618;51.166;10.322;2022-11-24T06:51:10;96710.97;;;4.80;88.11
26865;BME280;40618;51.166;10.322;2022-11-24T06:53:38;96725.44;;;4.83;88.21
26865;BME280;40618;51.166;10.322;2022-11-24T06:56:09;96727.13;;;4.85;87.95
26865;BME280;40618;51.166;10.322;2022-11-24T06:58:40;96734.81;;;4.85;87.93
26865;BME280;40618;51.166;10.322;2022-11-24T07:01:07;96731.34;;;4.86;88.05
26865;BME280;40618;51.166;10.322;2022-11-24T07:03:33;96737.34;;;4.87;88.38
26865;BME280;40618;51.166;10.322;2022-11-24T07:05:59;96738.19;;;4.87;87.96
26865;BME280;40618;51.166;10.322;2022-11-24T07:08:25;96737.34;;;4.87;88.02
26865;BME280;40618;51.166;10.322;2022-11-24T07:10:51;96735.59;;;4.89;88.13
26865;BME280;40618;51.166;10.322;2022-11-24T07:13:18;96729.50;;;4.93;88.09
26865;BME280;40618;51.166;10.322;2022-11-24T07:15:45;96740.63;;;4.94;88.43
26865;BME280;40618;51.166;10.322;2022-11-24T07:18:11;96732.91;;;4.95;88.22
26865;BME280;40618;51.166;10.322;2022-11-24T07:20:37;96733.69;;;4.99;88.40
26865;BME280;40618;51.166;10.322;2022-11-24T07:23:02;96726.81;;;5.01;88.53
26865;BME280;40618;51.166;10.322;2022-11-24T07:25:28;96720.81;;;5.02;88.13
26865;BME280;40618;51.166;10.322;2022-11-24T07:27:57;96727.59;;;5.03;88.11
26865;BME280;40618;51.166;10.322;2022-11-24T07:30:25;96737.00;;;5.04;88.17
26865;BME280;40618;51.166;10.322;2022-11-24T07:32:58;96741.31;;;5.03;88.04
26865;BME280;40618;51.166;10.322;2022-11-24T07:35:25;96744.75;;;5.02;88.02
26865;BME280;40618;51.166;10.322;2022-11-24T07:37:54;96760.97;;;5.03;88.18
26865;BME280;40618;51.166;10.322;2022-11-24T07:40:23;96750.69;;;5.04;88.00
26865;BME280;40618;51.166;10.322;2022-11-24T07:42:50;96758.38;;;5.06;88.58
26865;BME280;40618;51.166;10.322;2022-11-24T07:45:16;96757.47;;;5.08;87.96
26865;BME280;40618;51.166;10.322;2022-11-24T07:47:42;96761.66;;;5.11;88.21
26865;BME280;40618;51.166;10.322;2022-11-24T07:50:08;96766.78;;;5.13;88.41
26865;BME280;40618;51.166;10.322;2022-11-24T07:52:35;96769.31;;;5.14;88.35
26865;BME280;40618;51.166;10.322;2022-11-24T07:55:02;96758.19;;;5.14;88.37
26865;BME280;40618;51.166;10.322;2022-11-24T07:57:29;96767.59;;;5.15;88.18
26865;BME280;40618;51.166;10.322;2022-11-24T07:59:55;96763.28;;;5.15;87.92
26865;BME280;40618;51.166;10.322;2022-11-24T08:02:21;96762.44;;;5.16;88.15
26865;BME280;40618;51.166;10.322;2022-11-24T08:04:46;96768.38;;;5.18;88.16
26865;BME280;40618;51.166;10.322;2022-11-24T08:07:12;96763.25;;;5.18;87.80
26865;BME280;40618;51.166;10.322;2022-11-24T08:09:38;96768.44;;;5.17;88.45
26865;BME280;40618;51.166;10.322;2022-11-24T08:12:03;96765.03;;;5.15;88.23
26865;BME280;40618;51.166;10.322;2022-11-24T08:14:29;96762.44;;;5.16;88.78
26865;BME280;40618;51.166;10.322;2022-11-24T08:16:56;96764.97;;;5.18;88.30
26865;BME280;40618;51.166;10.322;2022-11-24T08:19:22;96759.78;;;5.21;88.32
26865;BME280;40618;51.166;10.322;2022-11-24T08:21:48;96766.59;;;5.22;88.18
26865;BME280;40618;51.166;10.322;2022-11-24T08:24:14;96764.84;;;5.24;88.45
26865;BME280;40618;51.166;10.322;2022-11-24T08:26:41;96769.91;;;5.27;88.38
26865;BME280;40618;51.166;10.322;2022-11-24T08:29:07;96772.41;;;5.32;88.51
26865;BME280;40618;51.166;10.322;2022-11-24T08:31:34;96774.03;;;5.34;88.40
26865;BME280;40618;51.166;10.322;2022-11-24T08:34:03;96766.31;;;5.37;88.44
26865;BME280;40618;51.166;10.322;2022-11-24T08:36:30;96768.78;;;5.40;88.49
26865;BME280;40618;51.166;10.322;2022-11-24T08:38:57;96768.78;;;5.40;88.51
26865;BME280;40618;51.166;10.322;2022-11-24T08:41:24;96771.31;;;5.42;88.27
26865;BME280;40618;51.166;10.322;2022-11-24T08:43:52;96770.44;;;5.45;88.14
26865;BME280;40618;51.166;10.322;2022-11-24T08:46:18;96778.94;;;5.47;88.23
26865;BME280;40618;51.166;10.322;2022-11-24T08:48:49;96778.91;;;5.48;88.40
26865;BME280;40618;51.166;10.322;2022-11-24T08:51:18;96779.72;;;5.50;88.08
26865;BME280;40618;51.166;10.322;2022-11-24T08:53:45;96785.66;;;5.54;88.52
26865;BME280;40618;51.166;10.322;2022-11-24T08:56:11;96789.88;;;5.56;88.08
26865;BME280;40618;51.166;10.322;2022-11-24T08:58:37;96792.38;;;5.59;88.29
26865;BME280;40618;51.166;10.322;2022-11-24T09:01:09;96800.06;;;5.59;88.37
26865;BME280;40618;51.166;10.322;2022-11-24T09:03:37;96805.16;;;5.63;88.59
26865;BME280;40618;51.166;10.322;2022-11-24T09:06:05;96804.25;;;5.65;88.13
26865;BME280;40618;51.166;10.322;2022-11-24T09:08:31;96803.38;;;5.66;88.29
26865;BME280;40618;51.166;10.322;2022-11-24T09:10:59;96810.16;;;5.69;88.04
26865;BME280;40618;51.166;10.322;2022-11-24T09:13:29;96807.56;;;5.70;88.70
26865;BME280;40618;51.166;10.322;2022-11-24T09:15:56;96818.63;;;5.72;88.46
26865;BME280;40618;51.166;10.322;2022-11-24T09:18:26;96819.47;;;5.74;88.40
26865;BME280;40618;51.166;10.322;2022-11-24T09:20:51;96821.97;;;5.78;88.13
26865;BME280;40618;51.166;10.322;2022-11-24T09:23:17;96829.63;;;5.79;88.20
26865;BME280;40618;51.166;10.322;2022-11-24T09:25:42;96821.06;;;5.80;88.33
26865;BME280;40618;51.166;10.322;2022-11-24T09:28:08;96829.53;;;5.85;88.32
26865;BME280;40618;51.166;10.322;2022-11-24T09:30:34;96832.09;;;5.85;88.36
26865;BME280;40618;51.166;10.322;2022-11-24T09:32:59;96825.19;;;5.87;88.45
26865;BME280;40618;51.166;10.322;2022-11-24T09:35:25;96829.41;;;5.90;88.37
26865;BME280;40618;51.166;10.322;2022-11-24T09:37:50;96840.47;;;5.93;87.94
26865;BME280;40618;51.166;10.322;2022-11-24T09:40:16;96833.56;;;5.99;88.57
26865;BME280;40618;51.166;10.322;2022-11-24T09:43:34;96845.47;;;6.03;88.04
26865;BME280;40618;51.166;10.322;2022-11-24T09:46:09;96839.38;;;6.05;88.26
26865;BME280;40618;51.166;10.322;2022-11-24T09:48:40;96846.19;;;6.08;88.16
26865;BME280;40618;51.166;10.322;2022-11-24T09:51:13;96851.28;;;6.11;88.27
26865;BME280;40618;51.166;10.322;2022-11-24T09:54:08;96856.31;;;6.16;88.16
26865;BME280;40618;51.166;10.322;2022-11-24T09:56:40;96859.66;;;6.18;88.46
26865;BME280;40618;51.166;10.322;2022-11-24T09:59:23;96863.06;;;6.20;88.39
26865;BME280;40618;51.166;10.322;2022-11-24T10:01:51;96857.84;;;6.23;88.42
26865;BME280;40618;51.166;10.322;2022-11-24T10:04:27;96857.81;;;6.24;88.50
26865;BME280;40618;51.166;10.322;2022-11-24T10:10:16;96868.88;;;6.28;88.25
26865;BME280;40618;51.166;10.322;2022-11-24T10:13:06;96868.81;;;6.31;88.38
26865;BME280;40618;51.166;10.322;2022-11-24T10:16:02;96872.13;;;6.36;88.45
26865;BME280;40618;51.166;10.322;2022-11-24T10:18:44;96873.81;;;6.37;88.21
26865;BME280;40618;51.166;10.322;2022-11-24T10:21:43;96875.44;;;6.41;87.92
26865;BME280;40618;51.166;10.322;2022-11-24T10:24:35;96872.88;;;6.41;87.77
26865;BME280;40618;51.166;10.322;2022-11-24T10:27:25;96880.50;;;6.44;87.77
26865;BME280;40618;51.166;10.322;2022-11-24T10:29:59;96882.97;;;6.49;88.33
26865;BME280;40618;51.166;10.322;2022-11-24T10:32:31;96870.84;;;6.54;88.02
26865;BME280;40618;51.166;10.322;2022-11-24T10:35:14;96873.41;;;6.54;88.14
26865;BME280;40618;51.166;10.322;2022-11-24T10:37:50;96873.41;;;6.54;88.17
26865;BME280;40618;51.166;10.322;2022-11-24T10:40:35;96876.84;;;6.55;88.12
26865;BME280;40618;51.166;10.322;2022-11-24T10:43:04;96877.63;;;6.58;87.59
26865;BME280;40618;51.166;10.322;2022-11-24T10:45:34;96878.44;;;6.60;87.73
26865;BME280;40618;51.166;10.322;2022-11-24T10:48:04;96880.09;;;6.63;88.02
26865;BME280;40618;51.166;10.322;2022-11-24T10:50:37;96878.41;;;6.62;87.77
26865;BME280;40618;51.166;10.322;2022-11-24T10:53:30;96876.69;;;6.61;87.95
26865;BME280;40618;51.166;10.322;2022-11-24T10:56:02;96879.28;;;6.61;87.94
26865;BME280;40618;51.166;10.322;2022-11-24T10:58:37;96874.16;;;6.59;88.12
26865;BME280;40618;51.166;10.322;2022-11-24T11:03:52;96884.53;;;6.56;88.07
26865;BME280;40618;51.166;10.322;2022-11-24T11:06:27;96884.47;;;6.59;87.66
26865;BME280;40618;51.166;10.322;2022-11-24T11:11:32;96886.16;;;6.60;88.39
26865;BME280;40618;51.166;10.322;2022-11-24T11:14:05;96894.75;;;6.59;87.73
26865;BME280;40618;51.166;10.322;2022-11-24T11:19:01;96898.28;;;6.55;88.02
26865;BME280;40618;51.166;10.322;2022-11-24T11:21:37;96902.59;;;6.55;87.42
26865;BME280;40618;51.166;10.322;2022-11-24T11:24:14;96888.06;;;6.52;87.32
26865;BME280;40618;51.166;10.322;2022-11-24T11:26:42;96893.22;;;6.52;87.68
26865;BME280;40618;51.166;10.322;2022-11-24T11:29:12;96897.47;;;6.52;87.85
26865;BME280;40618;51.166;10.322;2022-11-24T11:31:40;96896.63;;;6.53;87.44
26865;BME280;40618;51.166;10.322;2022-11-24T11:36:38;96904.31;;;6.53;87.59
26865;BME280;40618;51.166;10.322;2022-11-24T11:39:18;96900.00;;;6.55;88.02
26865;BME280;40618;51.166;10.322;2022-11-24T11:42:02;96899.09;;;6.56;88.08
26865;BME280;40618;51.166;10.322;2022-11-24T11:44:51;96909.44;;;6.54;87.58
26865;BME280;40618;51.166;10.322;2022-11-24T11:47:25;96910.34;;;6.52;87.42
26865;BME280;40618;51.166;10.322;2022-11-24T11:49:56;96906.09;;;6.51;87.35
26865;BME280;40618;51.166;10.322;2022-11-24T12:07:45;96922.22;;;6.59;87.44
26865;BME280;40618;51.166;10.322;2022-11-24T12:10:39;96926.44;;;6.60;87.40
26865;BME280;40618;51.166;10.322;2022-11-24T12:15:48;96920.38;;;6.63;87.37
26865;BME280;40618;51.166;10.322;2022-11-24T12:21:17;96918.66;;;6.65;87.29
26865;BME280;40618;51.166;10.322;2022-11-24T12:27:03;96929.84;;;6.62;87.63
26865;BME280;40618;51.166;10.322;2022-11-24T12:35:41;96937.88;;;6.48;86.90
26865;BME280;40618;51.166;10.322;2022-11-24T12:41:45;96933.75;;;6.39;87.50
26865;BME280;40618;51.166;10.322;2022-11-24T12:44:34;96941.47;;;6.39;87.07
26865;BME280;40618;51.166;10.322;2022-11-24T12:47:17;96945.75;;;6.40;87.70
26865;BME280;40618;51.166;10.322;2022-11-24T12:55:47;96948.88;;;6.53;87.44
26865;BME280;40618;51.166;10.322;2022-11-24T12:58:27;96942.03;;;6.54;87.28
26865;BME280;40618;51.166;10.322;2022-11-24T13:01:12;96946.31;;;6.55;87.13
26865;BME280;40618;51.166;10.322;2022-11-24T13:04:24;96952.25;;;6.57;87.08
26865;BME280;40618;51.166;10.322;2022-11-24T13:07:04;96953.09;;;6.57;87.32
26865;BME280;40618;51.166;10.322;2022-11-24T13:09:35;96952.19;;;6.60;86.73
26865;BME280;40618;51.166;10.322;2022-11-24T13:12:10;96957.31;;;6.62;86.83
26865;BME280;40618;51.166;10.322;2022-11-24T13:14:38;96963.22;;;6.65;87.49
26865;BME280;40618;51.166;10.322;2022-11-24T13:17:30;96964.91;;;6.66;87.04
26865;BME280;40618;51.166;10.322;2022-11-24T13:20:34;96968.28;;;6.68;86.68
26865;BME280;40618;51.166;10.322;2022-11-24T13:23:04;96960.53;;;6.71;86.71
26865;BME280;40618;51.166;10.322;2022-11-24T13:26:14;96973.31;;;6.74;86.78
26865;BME280;40618;51.166;10.322;2022-11-24T13:29:02;96974.13;;;6.75;86.88
26865;BME280;40618;51.166;10.322;2022-11-24T13:31:29;96980.19;;;6.74;86.68
26865;BME280;40618;51.166;10.322;2022-11-24T13:33:55;96986.19;;;6.74;86.86
26865;BME280;40618;51.166;10.322;2022-11-24T13:47:01;96987.88;;;6.75;86.46
26865;BME280;40618;51.166;10.322;2022-11-24T13:49:43;96989.59;;;6.75;86.39
26865;BME280;40618;51.166;10.322;2022-11-24T13:52:42;96995.59;;;6.75;86.78
26865;BME280;40618;51.166;10.322;2022-11-24T13:57:40;97003.16;;;6.82;86.57
26865;BME280;40618;51.166;10.322;2022-11-24T14:00:35;97010.78;;;6.86;87.01
26865;BME280;40618;51.166;10.322;2022-11-24T14:06:32;97022.69;;;6.92;86.74
26865;BME280;40618;51.166;10.322;2022-11-24T14:09:00;97019.25;;;6.91;86.46
26865;BME280;40618;51.166;10.322;2022-11-24T14:11:56;97017.50;;;6.93;86.48
26865;BME280;40618;51.166;10.322;2022-11-24T14:14:22;97018.38;;;6.92;86.18
26865;BME280;40618;51.166;10.322;2022-11-24T14:19:49;97024.38;;;6.93;86.20
26865;BME280;40618;51.166;10.322;2022-11-24T14:22:22;97022.69;;;6.92;86.30
26865;BME280;40618;51.166;10.322;2022-11-24T14:24:59;97024.44;;;6.90;86.48
26865;BME280;40618;51.166;10.322;2022-11-24T14:27:44;97020.16;;;6.89;86.33
26865;BME280;40618;51.166;10.322;2022-11-24T14:32:37;97039.94;;;6.87;85.90
26865;BME280;40618;51.166;10.322;2022-11-24T14:35:22;97030.47;;;6.87;86.03
26865;BME280;40618;51.166;10.322;2022-11-24T14:37:47;97031.38;;;6.86;86.43
26865;BME280;40618;51.166;10.322;2022-11-24T14:40:51;97039.94;;;6.87;86.00
26865;BME280;40618;51.166;10.322;2022-11-24T14:43:30;97042.56;;;6.85;86.04